sensor_id;sensor_type;location;lat;lon;timestamp;P1;durP1;ratioP1;P2;durP2;ratioP2
4638;SDS011;2332;38.646;-9.154;2022-07-21T00:00:54;8.80;;;4.10;;
4638;SDS011;2332;38.646;-9.154;2022-07-21T00:03:20;11.83;;;4.37;;
4638;SDS011;2332;38.646;-9.154;2022-07-21T00:05:45;6.93;;;3.67;;
4638;SDS011;2332;38.646;-9.154;2022-07-21T00:08:11;10.23;;;3.97;;
4638;SDS011;2332;38.646;-9.154;2022-07-21T00:10:38;8.73;;;4.17;;
4638;SDS011;2332;38.646;-9.154;2022-07-21T00:13:03;9.90;;;4.10;;
4638;SDS011;2332;38.646;-9.154;2022-07-21T00:15:29;10.27;;;4.60;;
4638;SDS011;2332;38.646;-9.154;2022-07-21T00:17:55;5.80;;;3.70;;
4638;SDS011;2332;38.646;-9.154;2022-07-21T00:20:21;9.43;;;5.00;;
4638;SDS011;2332;38.646;-9.154;2022-07-21T00:22:46;8.03;;;3.80;;
4638;SDS011;2332;38.646;-9.154;2022-07-21T00:25:13;6.30;;;3.70;;
4638;SDS011;2332;38.646;-9.154;2022-07-21T00:27:39;7.80;;;4.23;;
4638;SDS011;2332;38.646;-9.154;2022-07-21T00:30:05;8.23;;;4.50;;
4638;SDS011;2332;38.646;-9.154;2022-07-21T00:32:32;5.40;;;3.20;;
4638;SDS011;2332;38.646;-9.154;2022-07-21T00:34:58;8.50;;;4.40;;
4638;SDS011;2332;38.646;-9.154;2022-07-21T00:37:23;7.27;;;3.93;;
4638;SDS011;2332;38.646;-9.154;2022-07-21T00:39:51;8.33;;;3.70;;
4638;SDS011;2332;38.646;-9.154;2022-07-21T00:42:21;7.00;;;3.50;;
4638;SDS011;2332;38.646;-9.154;2022-07-21T00:44:50;9.43;;;4.43;;
4638;SDS011;2332;38.646;-9.154;2022-07-21T00:47:20;7.67;;;3.90;;
4638;SDS011;2332;38.646;-9.154;2022-07-21T00:49:46;7.00;;;3.80;;
4638;SDS011;2332;38.646;-9.154;2022-07-21T00:52:12;6.73;;;3.60;;
4638;SDS011;2332;38.646;-9.154;2022-07-21T00:54:38;8.00;;;4.47;;
4638;SDS011;2332;38.646;-9.154;2022-07-21T00:57:03;9.87;;;3.93;;
4638;SDS011;2332;38.646;-9.154;2022-07-21T00:59:30;14.13;;;4.50;;
4638;SDS011;2332;38.646;-9.154;2022-07-21T01:01:56;6.20;;;4.10;;
4638;SDS011;2332;38.646;-9.154;2022-07-21T01:04:21;9.03;;;4.27;;
4638;SDS011;2332;38.646;-9.154;2022-07-21T01:06:47;8.73;;;3.70;;
4638;SDS011;2332;38.646;-9.154;2022-07-21T01:09:13;8.90;;;4.03;;
4638;SDS011;2332;38.646;-9.154;2022-07-21T01:11:39;8.40;;;3.93;;
4638;SDS011;2332;38.646;-9.154;2022-07-21T01:14:08;8.07;;;4.40;;
4638;SDS011;2332;38.646;-9.154;2022-07-21T01:16:33;8.00;;;4.20;;
4638;SDS011;2332;38.646;-9.154;2022-07-21T01:18:59;9.60;;;4.27;;
4638;SDS011;2332;38.646;-9.154;2022-07-21T01:21:34;9.33;;;4.40;;
4638;SDS011;2332;38.646;-9.154;2022-07-21T01:24:03;9.73;;;4.13;;
4638;SDS011;2332;38.646;-9.154;2022-07-21T01:26:29;10.47;;;4.07;;
4638;SDS011;2332;38.646;-9.154;2022-07-21T01:28:55;9.03;;;4.20;;
4638;SDS011;2332;38.646;-9.154;2022-07-21T01:31:21;7.00;;;4.00;;
4638;SDS011;2332;38.646;-9.154;2022-07-21T01:33:48;10.40;;;4.40;;
4638;SDS011;2332;38.646;-9.154;2022-07-21T01:36:14;5.20;;;4.53;;
4638;SDS011;2332;38.646;-9.154;2022-07-21T01:38:39;9.40;;;4.20;;
4638;SDS011;2332;38.646;-9.154;2022-07-21T01:41:23;7.00;;;3.50;;
4638;SDS011;2332;38.646;-9.154;2022-07-21T01:43:55;11.67;;;4.33;;
4638;SDS011;2332;38.646;-9.154;2022-07-21T01:46:22;9.30;;;4.83;;
4638;SDS011;2332;38.646;-9.154;2022-07-21T01:48:47;14.13;;;5.17;;
4638;SDS011;2332;38.646;-9.154;2022-07-21T01:51:13;9.53;;;4.60;;
4638;SDS011;2332;38.646;-9.154;2022-07-21T01:53:39;7.87;;;4.10;;
4638;SDS011;2332;38.646;-9.154;2022-07-21T01:56:04;14.27;;;5.63;;
4638;SDS011;2332;38.646;-9.154;2022-07-21T01:58:30;7.60;;;4.50;;
4638;SDS011;2332;38.646;-9.154;2022-07-21T02:00:56;9.53;;;4.53;;
4638;SDS011;2332;38.646;-9.154;2022-07-21T02:03:22;12.50;;;5.07;;
4638;SDS011;2332;38.646;-9.154;2022-07-21T02:05:47;13.40;;;5.63;;
4638;SDS011;2332;38.646;-9.154;2022-07-21T02:08:13;16.20;;;6.13;;
4638;SDS011;2332;38.646;-9.154;2022-07-21T02:10:39;14.40;;;5.10;;
4638;SDS011;2332;38.646;-9.154;2022-07-21T02:13:04;16.57;;;6.10;;
4638;SDS011;2332;38.646;-9.154;2022-07-21T02:15:30;8.63;;;4.67;;
4638;SDS011;2332;38.646;-9.154;2022-07-21T02:17:56;15.87;;;5.90;;
4638;SDS011;2332;38.646;-9.154;2022-07-21T02:20:22;10.77;;;5.37;;
4638;SDS011;2332;38.646;-9.154;2022-07-21T02:22:50;11.53;;;4.43;;
4638;SDS011;2332;38.646;-9.154;2022-07-21T02:25:16;10.90;;;5.70;;
4638;SDS011;2332;38.646;-9.154;2022-07-21T02:27:42;10.70;;;5.20;;
4638;SDS011;2332;38.646;-9.154;2022-07-21T02:30:08;7.53;;;5.03;;
4638;SDS011;2332;38.646;-9.154;2022-07-21T02:32:36;12.97;;;4.57;;
4638;SDS011;2332;38.646;-9.154;2022-07-21T02:35:02;10.43;;;5.50;;
4638;SDS011;2332;38.646;-9.154;2022-07-21T02:37:28;13.03;;;5.00;;
4638;SDS011;2332;38.646;-9.154;2022-07-21T02:39:54;12.07;;;5.27;;
4638;SDS011;2332;38.646;-9.154;2022-07-21T02:42:19;13.43;;;5.70;;
4638;SDS011;2332;38.646;-9.154;2022-07-21T02:44:45;12.80;;;5.13;;
4638;SDS011;2332;38.646;-9.154;2022-07-21T02:47:11;12.50;;;6.17;;
4638;SDS011;2332;38.646;-9.154;2022-07-21T02:49:36;15.67;;;6.10;;
4638;SDS011;2332;38.646;-9.154;2022-07-21T02:52:02;15.27;;;6.30;;
4638;SDS011;2332;38.646;-9.154;2022-07-21T02:54:29;17.20;;;6.13;;
4638;SDS011;2332;38.646;-9.154;2022-07-21T02:56:54;15.53;;;6.00;;
4638;SDS011;2332;38.646;-9.154;2022-07-21T02:59:20;20.17;;;6.37;;
4638;SDS011;2332;38.646;-9.154;2022-07-21T03:01:45;11.20;;;5.60;;
4638;SDS011;2332;38.646;-9.154;2022-07-21T03:04:11;12.43;;;6.20;;
4638;SDS011;2332;38.646;-9.154;2022-07-21T03:06:37;11.10;;;6.27;;
4638;SDS011;2332;38.646;-9.154;2022-07-21T03:09:07;22.97;;;7.60;;
4638;SDS011;2332;38.646;-9.154;2022-07-21T03:11:36;17.10;;;7.27;;
4638;SDS011;2332;38.646;-9.154;2022-07-21T03:14:01;14.60;;;6.73;;
4638;SDS011;2332;38.646;-9.154;2022-07-21T03:16:27;14.53;;;7.00;;
4638;SDS011;2332;38.646;-9.154;2022-07-21T03:18:53;12.60;;;6.13;;
4638;SDS011;2332;38.646;-9.154;2022-07-21T03:21:18;22.70;;;6.87;;
4638;SDS011;2332;38.646;-9.154;2022-07-21T03:23:44;18.97;;;7.20;;
4638;SDS011;2332;38.646;-9.154;2022-07-21T03:26:13;20.33;;;7.47;;
4638;SDS011;2332;38.646;-9.154;2022-07-21T03:28:39;20.97;;;7.30;;
4638;SDS011;2332;38.646;-9.154;2022-07-21T03:31:05;20.37;;;8.07;;
4638;SDS011;2332;38.646;-9.154;2022-07-21T03:33:31;22.73;;;7.67;;
4638;SDS011;2332;38.646;-9.154;2022-07-21T03:35:56;24.77;;;9.80;;
4638;SDS011;2332;38.646;-9.154;2022-07-21T03:38:25;17.27;;;7.73;;
4638;SDS011;2332;38.646;-9.154;2022-07-21T03:40:51;19.40;;;8.17;;
4638;SDS011;2332;38.646;-9.154;2022-07-21T03:43:16;14.20;;;7.80;;
4638;SDS011;2332;38.646;-9.154;2022-07-21T03:45:42;20.57;;;7.53;;
4638;SDS011;2332;38.646;-9.154;2022-07-21T03:48:08;21.17;;;8.47;;
4638;SDS011;2332;38.646;-9.154;2022-07-21T03:50:35;23.83;;;8.67;;
4638;SDS011;2332;38.646;-9.154;2022-07-21T03:53:03;15.33;;;7.40;;
4638;SDS011;2332;38.646;-9.154;2022-07-21T03:55:29;19.07;;;8.50;;
4638;SDS011;2332;38.646;-9.154;2022-07-21T03:57:56;17.27;;;7.87;;
4638;SDS011;2332;38.646;-9.154;2022-07-21T04:00:31;17.10;;;8.10;;
4638;SDS011;2332;38.646;-9.154;2022-07-21T04:02:59;25.30;;;8.90;;
4638;SDS011;2332;38.646;-9.154;2022-07-21T04:05:25;21.50;;;8.63;;
4638;SDS011;2332;38.646;-9.154;2022-07-21T04:07:51;17.13;;;8.40;;
4638;SDS011;2332;38.646;-9.154;2022-07-21T04:10:22;18.57;;;9.10;;
4638;SDS011;2332;38.646;-9.154;2022-07-21T04:12:51;21.27;;;8.57;;
4638;SDS011;2332;38.646;-9.154;2022-07-21T04:15:17;22.77;;;8.07;;
4638;SDS011;2332;38.646;-9.154;2022-07-21T04:17:43;20.37;;;8.70;;
4638;SDS011;2332;38.646;-9.154;2022-07-21T04:20:09;19.00;;;8.50;;
4638;SDS011;2332;38.646;-9.154;2022-07-21T04:22:35;34.67;;;9.87;;
4638;SDS011;2332;38.646;-9.154;2022-07-21T04:25:02;20.33;;;7.80;;
4638;SDS011;2332;38.646;-9.154;2022-07-21T04:27:29;22.70;;;8.03;;
4638;SDS011;2332;38.646;-9.154;2022-07-21T04:29:54;21.53;;;8.30;;
4638;SDS011;2332;38.646;-9.154;2022-07-21T04:32:20;28.53;;;9.30;;
4638;SDS011;2332;38.646;-9.154;2022-07-21T04:34:45;25.03;;;9.40;;
4638;SDS011;2332;38.646;-9.154;2022-07-21T04:37:11;27.43;;;9.03;;
4638;SDS011;2332;38.646;-9.154;2022-07-21T04:39:36;21.63;;;9.13;;
4638;SDS011;2332;38.646;-9.154;2022-07-21T04:42:02;22.07;;;8.73;;
4638;SDS011;2332;38.646;-9.154;2022-07-21T04:44:28;28.00;;;9.00;;
4638;SDS011;2332;38.646;-9.154;2022-07-21T04:46:53;27.00;;;9.23;;
4638;SDS011;2332;38.646;-9.154;2022-07-21T04:49:19;23.00;;;8.07;;
4638;SDS011;2332;38.646;-9.154;2022-07-21T04:51:45;22.53;;;9.43;;
4638;SDS011;2332;38.646;-9.154;2022-07-21T04:54:10;28.43;;;10.80;;
4638;SDS011;2332;38.646;-9.154;2022-07-21T04:56:39;27.10;;;9.23;;
4638;SDS011;2332;38.646;-9.154;2022-07-21T04:59:05;23.27;;;8.80;;
4638;SDS011;2332;38.646;-9.154;2022-07-21T05:01:31;32.30;;;10.40;;
4638;SDS011;2332;38.646;-9.154;2022-07-21T05:03:57;29.53;;;10.20;;
4638;SDS011;2332;38.646;-9.154;2022-07-21T05:06:22;24.37;;;9.93;;
4638;SDS011;2332;38.646;-9.154;2022-07-21T05:08:48;27.87;;;9.90;;
4638;SDS011;2332;38.646;-9.154;2022-07-21T05:11:14;22.87;;;9.83;;
4638;SDS011;2332;38.646;-9.154;2022-07-21T05:13:39;21.83;;;9.03;;
4638;SDS011;2332;38.646;-9.154;2022-07-21T05:16:05;24.30;;;9.20;;
4638;SDS011;2332;38.646;-9.154;2022-07-21T05:18:31;27.77;;;10.03;;
4638;SDS011;2332;38.646;-9.154;2022-07-21T05:20:56;26.70;;;9.77;;
4638;SDS011;2332;38.646;-9.154;2022-07-21T05:23:22;23.47;;;9.90;;
4638;SDS011;2332;38.646;-9.154;2022-07-21T05:25:47;22.00;;;10.20;;
4638;SDS011;2332;38.646;-9.154;2022-07-21T05:28:13;34.17;;;11.17;;
4638;SDS011;2332;38.646;-9.154;2022-07-21T05:30:38;28.43;;;10.67;;
4638;SDS011;2332;38.646;-9.154;2022-07-21T05:33:04;27.60;;;9.77;;
4638;SDS011;2332;38.646;-9.154;2022-07-21T05:35:29;28.63;;;10.17;;
4638;SDS011;2332;38.646;-9.154;2022-07-21T05:37:55;28.53;;;10.30;;
4638;SDS011;2332;38.646;-9.154;2022-07-21T05:40:21;25.47;;;10.37;;
4638;SDS011;2332;38.646;-9.154;2022-07-21T05:42:47;29.27;;;10.10;;
4638;SDS011;2332;38.646;-9.154;2022-07-21T05:45:13;27.47;;;10.40;;
4638;SDS011;2332;38.646;-9.154;2022-07-21T05:47:39;36.30;;;12.57;;
4638;SDS011;2332;38.646;-9.154;2022-07-21T05:50:05;32.13;;;10.50;;
4638;SDS011;2332;38.646;-9.154;2022-07-21T05:52:31;30.17;;;11.00;;
4638;SDS011;2332;38.646;-9.154;2022-07-21T05:54:56;20.93;;;9.30;;
4638;SDS011;2332;38.646;-9.154;2022-07-21T05:57:22;31.50;;;9.83;;
4638;SDS011;2332;38.646;-9.154;2022-07-21T05:59:48;25.10;;;10.20;;
4638;SDS011;2332;38.646;-9.154;2022-07-21T06:02:13;26.57;;;9.93;;
4638;SDS011;2332;38.646;-9.154;2022-07-21T06:04:39;25.37;;;9.87;;
4638;SDS011;2332;38.646;-9.154;2022-07-21T06:07:04;26.40;;;10.27;;
4638;SDS011;2332;38.646;-9.154;2022-07-21T06:09:30;24.23;;;9.40;;
4638;SDS011;2332;38.646;-9.154;2022-07-21T06:11:56;26.80;;;9.97;;
4638;SDS011;2332;38.646;-9.154;2022-07-21T06:14:21;21.00;;;9.60;;
4638;SDS011;2332;38.646;-9.154;2022-07-21T06:16:47;21.10;;;8.90;;
4638;SDS011;2332;38.646;-9.154;2022-07-21T06:19:13;22.00;;;8.63;;
4638;SDS011;2332;38.646;-9.154;2022-07-21T06:21:39;24.37;;;9.47;;
4638;SDS011;2332;38.646;-9.154;2022-07-21T06:24:06;28.07;;;9.93;;
4638;SDS011;2332;38.646;-9.154;2022-07-21T06:26:32;27.50;;;9.00;;
4638;SDS011;2332;38.646;-9.154;2022-07-21T06:28:58;27.83;;;9.07;;
4638;SDS011;2332;38.646;-9.154;2022-07-21T06:31:24;28.57;;;10.30;;
4638;SDS011;2332;38.646;-9.154;2022-07-21T06:33:49;25.33;;;10.17;;
4638;SDS011;2332;38.646;-9.154;2022-07-21T06:36:15;21.13;;;9.90;;
4638;SDS011;2332;38.646;-9.154;2022-07-21T06:38:41;23.53;;;10.90;;
4638;SDS011;2332;38.646;-9.154;2022-07-21T06:41:06;28.77;;;12.80;;
4638;SDS011;2332;38.646;-9.154;2022-07-21T06:43:32;29.23;;;13.93;;
4638;SDS011;2332;38.646;-9.154;2022-07-21T06:45:58;21.93;;;13.03;;
4638;SDS011;2332;38.646;-9.154;2022-07-21T06:48:24;24.87;;;12.30;;
4638;SDS011;2332;38.646;-9.154;2022-07-21T06:50:50;23.60;;;12.70;;
4638;SDS011;2332;38.646;-9.154;2022-07-21T06:53:16;24.40;;;12.10;;
4638;SDS011;2332;38.646;-9.154;2022-07-21T06:55:42;19.93;;;10.87;;
4638;SDS011;2332;38.646;-9.154;2022-07-21T06:58:15;24.77;;;10.93;;
4638;SDS011;2332;38.646;-9.154;2022-07-21T07:00:43;27.43;;;10.60;;
4638;SDS011;2332;38.646;-9.154;2022-07-21T07:03:10;25.50;;;9.20;;
4638;SDS011;2332;38.646;-9.154;2022-07-21T07:05:36;19.47;;;7.90;;
4638;SDS011;2332;38.646;-9.154;2022-07-21T07:08:02;18.73;;;8.00;;
4638;SDS011;2332;38.646;-9.154;2022-07-21T07:10:28;16.90;;;8.50;;
4638;SDS011;2332;38.646;-9.154;2022-07-21T07:12:54;26.20;;;8.30;;
4638;SDS011;2332;38.646;-9.154;2022-07-21T07:15:21;22.20;;;8.43;;
4638;SDS011;2332;38.646;-9.154;2022-07-21T07:17:47;18.13;;;7.30;;
4638;SDS011;2332;38.646;-9.154;2022-07-21T07:20:13;16.90;;;8.17;;
4638;SDS011;2332;38.646;-9.154;2022-07-21T07:22:39;19.00;;;7.43;;
4638;SDS011;2332;38.646;-9.154;2022-07-21T07:25:04;14.70;;;7.80;;
4638;SDS011;2332;38.646;-9.154;2022-07-21T07:27:31;23.37;;;7.43;;
4638;SDS011;2332;38.646;-9.154;2022-07-21T07:29:56;27.50;;;7.80;;
4638;SDS011;2332;38.646;-9.154;2022-07-21T07:32:22;18.97;;;7.13;;
4638;SDS011;2332;38.646;-9.154;2022-07-21T07:34:48;15.93;;;8.00;;
4638;SDS011;2332;38.646;-9.154;2022-07-21T07:37:13;14.20;;;6.80;;
4638;SDS011;2332;38.646;-9.154;2022-07-21T07:39:39;10.60;;;6.60;;
4638;SDS011;2332;38.646;-9.154;2022-07-21T07:42:05;15.27;;;6.60;;
4638;SDS011;2332;38.646;-9.154;2022-07-21T07:44:31;12.50;;;6.33;;
4638;SDS011;2332;38.646;-9.154;2022-07-21T07:46:57;13.53;;;6.43;;
4638;SDS011;2332;38.646;-9.154;2022-07-21T07:49:23;12.03;;;5.43;;
4638;SDS011;2332;38.646;-9.154;2022-07-21T07:51:48;13.17;;;6.27;;
4638;SDS011;2332;38.646;-9.154;2022-07-21T07:54:14;11.83;;;6.40;;
4638;SDS011;2332;38.646;-9.154;2022-07-21T07:56:40;12.73;;;5.70;;
4638;SDS011;2332;38.646;-9.154;2022-07-21T07:59:07;16.10;;;6.27;;
4638;SDS011;2332;38.646;-9.154;2022-07-21T08:01:32;11.23;;;5.67;;
4638;SDS011;2332;38.646;-9.154;2022-07-21T08:03:58;12.30;;;5.90;;
4638;SDS011;2332;38.646;-9.154;2022-07-21T08:06:24;14.23;;;7.07;;
4638;SDS011;2332;38.646;-9.154;2022-07-21T08:08:49;12.67;;;6.37;;
4638;SDS011;2332;38.646;-9.154;2022-07-21T08:11:15;19.10;;;7.30;;
4638;SDS011;2332;38.646;-9.154;2022-07-21T08:13:41;9.47;;;5.87;;
4638;SDS011;2332;38.646;-9.154;2022-07-21T08:16:07;9.93;;;5.70;;
4638;SDS011;2332;38.646;-9.154;2022-07-21T08:18:32;13.10;;;6.23;;
4638;SDS011;2332;38.646;-9.154;2022-07-21T08:20:58;10.13;;;5.47;;
4638;SDS011;2332;38.646;-9.154;2022-07-21T08:23:24;13.33;;;6.53;;
4638;SDS011;2332;38.646;-9.154;2022-07-21T08:25:49;13.10;;;6.43;;
4638;SDS011;2332;38.646;-9.154;2022-07-21T08:28:15;8.40;;;5.60;;
4638;SDS011;2332;38.646;-9.154;2022-07-21T08:30:40;11.90;;;5.90;;
4638;SDS011;2332;38.646;-9.154;2022-07-21T08:36:09;8.87;;;5.80;;
4638;SDS011;2332;38.646;-9.154;2022-07-21T08:38:35;12.23;;;5.40;;
4638;SDS011;2332;38.646;-9.154;2022-07-21T08:41:01;9.37;;;5.10;;
4638;SDS011;2332;38.646;-9.154;2022-07-21T08:43:26;8.27;;;5.60;;
4638;SDS011;2332;38.646;-9.154;2022-07-21T08:45:53;11.23;;;5.77;;
4638;SDS011;2332;38.646;-9.154;2022-07-21T08:48:21;10.30;;;5.10;;
4638;SDS011;2332;38.646;-9.154;2022-07-21T08:50:49;19.20;;;5.50;;
4638;SDS011;2332;38.646;-9.154;2022-07-21T08:53:15;11.20;;;5.30;;
4638;SDS011;2332;38.646;-9.154;2022-07-21T08:55:40;14.60;;;6.27;;
4638;SDS011;2332;38.646;-9.154;2022-07-21T08:58:07;9.80;;;5.90;;
4638;SDS011;2332;38.646;-9.154;2022-07-21T09:00:37;9.53;;;5.83;;
4638;SDS011;2332;38.646;-9.154;2022-07-21T09:03:07;8.93;;;5.23;;
4638;SDS011;2332;38.646;-9.154;2022-07-21T09:05:37;14.83;;;6.20;;
4638;SDS011;2332;38.646;-9.154;2022-07-21T09:08:02;44.77;;;6.60;;
4638;SDS011;2332;38.646;-9.154;2022-07-21T09:10:29;21.57;;;6.63;;
4638;SDS011;2332;38.646;-9.154;2022-07-21T09:13:01;11.63;;;6.33;;
4638;SDS011;2332;38.646;-9.154;2022-07-21T09:15:29;14.40;;;5.77;;
4638;SDS011;2332;38.646;-9.154;2022-07-21T09:18:06;9.03;;;6.10;;
4638;SDS011;2332;38.646;-9.154;2022-07-21T09:20:34;10.67;;;5.27;;
4638;SDS011;2332;38.646;-9.154;2022-07-21T09:23:04;8.27;;;5.30;;
4638;SDS011;2332;38.646;-9.154;2022-07-21T09:28:08;15.40;;;5.23;;
4638;SDS011;2332;38.646;-9.154;2022-07-21T09:36:00;13.67;;;5.60;;
4638;SDS011;2332;38.646;-9.154;2022-07-21T09:38:31;15.43;;;5.40;;
4638;SDS011;2332;38.646;-9.154;2022-07-21T09:43:47;11.20;;;5.40;;
4638;SDS011;2332;38.646;-9.154;2022-07-21T09:48:50;12.40;;;5.63;;
4638;SDS011;2332;38.646;-9.154;2022-07-21T09:53:56;11.40;;;5.93;;
4638;SDS011;2332;38.646;-9.154;2022-07-21T09:56:24;9.97;;;5.20;;
4638;SDS011;2332;38.646;-9.154;2022-07-21T09:58:52;14.83;;;5.50;;
4638;SDS011;2332;38.646;-9.154;2022-07-21T10:01:19;11.93;;;5.00;;
4638;SDS011;2332;38.646;-9.154;2022-07-21T10:03:45;9.87;;;5.00;;
4638;SDS011;2332;38.646;-9.154;2022-07-21T10:06:12;8.10;;;5.37;;
4638;SDS011;2332;38.646;-9.154;2022-07-21T10:08:40;8.97;;;5.33;;
4638;SDS011;2332;38.646;-9.154;2022-07-21T10:11:07;8.13;;;5.07;;
4638;SDS011;2332;38.646;-9.154;2022-07-21T10:13:33;14.63;;;5.70;;
4638;SDS011;2332;38.646;-9.154;2022-07-21T10:15:59;10.87;;;5.23;;
4638;SDS011;2332;38.646;-9.154;2022-07-21T10:18:25;7.77;;;5.83;;
4638;SDS011;2332;38.646;-9.154;2022-07-21T10:20:59;7.23;;;5.23;;
4638;SDS011;2332;38.646;-9.154;2022-07-21T10:23:40;8.67;;;5.20;;
4638;SDS011;2332;38.646;-9.154;2022-07-21T10:26:07;10.87;;;4.67;;
4638;SDS011;2332;38.646;-9.154;2022-07-21T10:28:35;7.53;;;4.90;;
4638;SDS011;2332;38.646;-9.154;2022-07-21T10:31:23;14.23;;;5.93;;
4638;SDS011;2332;38.646;-9.154;2022-07-21T10:39:17;12.57;;;5.80;;
4638;SDS011;2332;38.646;-9.154;2022-07-21T10:42:00;7.07;;;4.90;;
4638;SDS011;2332;38.646;-9.154;2022-07-21T10:44:41;8.60;;;4.97;;
4638;SDS011;2332;38.646;-9.154;2022-07-21T10:47:10;13.87;;;5.20;;
4638;SDS011;2332;38.646;-9.154;2022-07-21T10:57:45;9.97;;;5.03;;
4638;SDS011;2332;38.646;-9.154;2022-07-21T11:00:25;9.37;;;5.23;;
4638;SDS011;2332;38.646;-9.154;2022-07-21T11:02:56;10.70;;;5.50;;
4638;SDS011;2332;38.646;-9.154;2022-07-21T11:05:23;9.37;;;5.40;;
4638;SDS011;2332;38.646;-9.154;2022-07-21T11:10:37;12.07;;;5.13;;
4638;SDS011;2332;38.646;-9.154;2022-07-21T11:13:08;12.03;;;5.53;;
4638;SDS011;2332;38.646;-9.154;2022-07-21T11:15:54;8.40;;;5.10;;
4638;SDS011;2332;38.646;-9.154;2022-07-21T11:18:22;8.63;;;5.63;;
4638;SDS011;2332;38.646;-9.154;2022-07-21T11:21:06;14.37;;;5.27;;
4638;SDS011;2332;38.646;-9.154;2022-07-21T11:23:39;11.20;;;6.00;;
4638;SDS011;2332;38.646;-9.154;2022-07-21T11:26:14;7.27;;;5.57;;
4638;SDS011;2332;38.646;-9.154;2022-07-21T11:28:40;11.47;;;5.70;;
4638;SDS011;2332;38.646;-9.154;2022-07-21T11:33:35;12.23;;;5.43;;
4638;SDS011;2332;38.646;-9.154;2022-07-21T11:36:02;9.67;;;5.37;;
4638;SDS011;2332;38.646;-9.154;2022-07-21T11:38:29;9.43;;;5.23;;
4638;SDS011;2332;38.646;-9.154;2022-07-21T11:41:11;8.40;;;5.00;;
4638;SDS011;2332;38.646;-9.154;2022-07-21T11:43:42;11.83;;;5.33;;
4638;SDS011;2332;38.646;-9.154;2022-07-21T11:46:09;8.50;;;5.13;;
4638;SDS011;2332;38.646;-9.154;2022-07-21T11:48:34;11.73;;;5.37;;
4638;SDS011;2332;38.646;-9.154;2022-07-21T11:51:00;10.10;;;5.53;;
4638;SDS011;2332;38.646;-9.154;2022-07-21T11:53:26;10.30;;;5.70;;
4638;SDS011;2332;38.646;-9.154;2022-07-21T11:55:52;8.90;;;5.77;;
4638;SDS011;2332;38.646;-9.154;2022-07-21T11:58:19;11.13;;;7.23;;
4638;SDS011;2332;38.646;-9.154;2022-07-21T12:00:45;8.47;;;6.20;;
4638;SDS011;2332;38.646;-9.154;2022-07-21T12:03:13;9.67;;;5.90;;
4638;SDS011;2332;38.646;-9.154;2022-07-21T12:05:40;11.50;;;4.90;;
4638;SDS011;2332;38.646;-9.154;2022-07-21T12:08:06;10.23;;;5.90;;
4638;SDS011;2332;38.646;-9.154;2022-07-21T12:10:32;11.93;;;5.87;;
4638;SDS011;2332;38.646;-9.154;2022-07-21T12:13:02;10.50;;;4.83;;
4638;SDS011;2332;38.646;-9.154;2022-07-21T12:15:30;11.10;;;5.27;;
4638;SDS011;2332;38.646;-9.154;2022-07-21T12:18:09;10.00;;;5.73;;
4638;SDS011;2332;38.646;-9.154;2022-07-21T12:21:00;10.73;;;5.47;;
4638;SDS011;2332;38.646;-9.154;2022-07-21T12:23:30;9.10;;;5.57;;
4638;SDS011;2332;38.646;-9.154;2022-07-21T12:25:57;6.47;;;5.30;;
4638;SDS011;2332;38.646;-9.154;2022-07-21T12:31:12;10.43;;;5.90;;
4638;SDS011;2332;38.646;-9.154;2022-07-21T12:33:39;15.63;;;5.73;;
4638;SDS011;2332;38.646;-9.154;2022-07-21T12:36:06;13.80;;;6.20;;
4638;SDS011;2332;38.646;-9.154;2022-07-21T12:38:43;11.83;;;6.07;;
4638;SDS011;2332;38.646;-9.154;2022-07-21T12:41:13;13.07;;;6.50;;
4638;SDS011;2332;38.646;-9.154;2022-07-21T12:43:40;17.00;;;6.20;;
4638;SDS011;2332;38.646;-9.154;2022-07-21T12:48:34;9.87;;;5.60;;
4638;SDS011;2332;38.646;-9.154;2022-07-21T12:51:05;8.50;;;6.33;;
4638;SDS011;2332;38.646;-9.154;2022-07-21T12:53:35;9.73;;;5.80;;
4638;SDS011;2332;38.646;-9.154;2022-07-21T12:56:02;8.17;;;5.50;;
4638;SDS011;2332;38.646;-9.154;2022-07-21T12:58:28;12.50;;;5.63;;
4638;SDS011;2332;38.646;-9.154;2022-07-21T13:00:54;13.27;;;6.20;;
4638;SDS011;2332;38.646;-9.154;2022-07-21T13:03:20;7.03;;;5.57;;
4638;SDS011;2332;38.646;-9.154;2022-07-21T13:05:46;18.87;;;6.37;;
4638;SDS011;2332;38.646;-9.154;2022-07-21T13:08:12;11.63;;;6.20;;
4638;SDS011;2332;38.646;-9.154;2022-07-21T13:10:37;12.30;;;6.10;;
4638;SDS011;2332;38.646;-9.154;2022-07-21T13:13:03;12.37;;;6.10;;
4638;SDS011;2332;38.646;-9.154;2022-07-21T13:15:28;15.43;;;6.60;;
4638;SDS011;2332;38.646;-9.154;2022-07-21T13:17:54;17.43;;;5.70;;
4638;SDS011;2332;38.646;-9.154;2022-07-21T13:20:19;11.47;;;5.63;;
4638;SDS011;2332;38.646;-9.154;2022-07-21T13:22:45;14.60;;;6.03;;
4638;SDS011;2332;38.646;-9.154;2022-07-21T13:25:11;12.77;;;5.63;;
4638;SDS011;2332;38.646;-9.154;2022-07-21T13:27:37;8.40;;;5.90;;
4638;SDS011;2332;38.646;-9.154;2022-07-21T13:30:04;11.10;;;5.60;;
4638;SDS011;2332;38.646;-9.154;2022-07-21T13:32:32;15.80;;;5.97;;
4638;SDS011;2332;38.646;-9.154;2022-07-21T13:34:58;7.27;;;5.10;;
4638;SDS011;2332;38.646;-9.154;2022-07-21T13:37:24;15.60;;;6.00;;
4638;SDS011;2332;38.646;-9.154;2022-07-21T13:39:49;13.73;;;4.90;;
4638;SDS011;2332;38.646;-9.154;2022-07-21T13:42:15;7.47;;;4.93;;
4638;SDS011;2332;38.646;-9.154;2022-07-21T13:44:40;8.47;;;5.13;;
4638;SDS011;2332;38.646;-9.154;2022-07-21T13:47:06;16.03;;;5.53;;
4638;SDS011;2332;38.646;-9.154;2022-07-21T13:49:32;9.90;;;6.30;;
4638;SDS011;2332;38.646;-9.154;2022-07-21T13:51:57;11.40;;;5.43;;
4638;SDS011;2332;38.646;-9.154;2022-07-21T13:54:23;12.47;;;5.70;;
4638;SDS011;2332;38.646;-9.154;2022-07-21T13:56:49;7.27;;;5.07;;
4638;SDS011;2332;38.646;-9.154;2022-07-21T13:59:14;7.93;;;5.43;;
4638;SDS011;2332;38.646;-9.154;2022-07-21T14:01:40;12.60;;;4.90;;
4638;SDS011;2332;38.646;-9.154;2022-07-21T14:04:06;8.23;;;4.93;;
4638;SDS011;2332;38.646;-9.154;2022-07-21T14:06:31;10.77;;;6.20;;
4638;SDS011;2332;38.646;-9.154;2022-07-21T14:08:57;11.10;;;6.10;;
4638;SDS011;2332;38.646;-9.154;2022-07-21T14:11:22;12.13;;;5.10;;
4638;SDS011;2332;38.646;-9.154;2022-07-21T14:13:49;9.80;;;5.27;;
4638;SDS011;2332;38.646;-9.154;2022-07-21T14:16:15;17.17;;;5.73;;
4638;SDS011;2332;38.646;-9.154;2022-07-21T14:18:40;7.80;;;4.63;;
4638;SDS011;2332;38.646;-9.154;2022-07-21T14:21:06;10.37;;;5.47;;
4638;SDS011;2332;38.646;-9.154;2022-07-21T14:23:32;15.93;;;5.33;;
4638;SDS011;2332;38.646;-9.154;2022-07-21T14:25:58;9.47;;;5.37;;
4638;SDS011;2332;38.646;-9.154;2022-07-21T14:28:24;11.20;;;5.03;;
4638;SDS011;2332;38.646;-9.154;2022-07-21T14:30:50;17.63;;;6.30;;
4638;SDS011;2332;38.646;-9.154;2022-07-21T14:33:16;7.27;;;5.20;;
4638;SDS011;2332;38.646;-9.154;2022-07-21T14:35:42;14.30;;;5.53;;
4638;SDS011;2332;38.646;-9.154;2022-07-21T14:38:08;14.23;;;5.20;;
4638;SDS011;2332;38.646;-9.154;2022-07-21T14:40:34;15.20;;;6.13;;
4638;SDS011;2332;38.646;-9.154;2022-07-21T14:43:00;12.47;;;5.07;;
4638;SDS011;2332;38.646;-9.154;2022-07-21T14:45:26;10.57;;;5.13;;
4638;SDS011;2332;38.646;-9.154;2022-07-21T14:47:53;14.90;;;5.17;;
4638;SDS011;2332;38.646;-9.154;2022-07-21T14:50:20;12.70;;;5.17;;
4638;SDS011;2332;38.646;-9.154;2022-07-21T14:52:46;9.57;;;5.10;;
4638;SDS011;2332;38.646;-9.154;2022-07-21T14:55:12;15.50;;;5.10;;
4638;SDS011;2332;38.646;-9.154;2022-07-21T14:57:37;8.27;;;5.10;;
4638;SDS011;2332;38.646;-9.154;2022-07-21T15:00:04;12.90;;;5.60;;
4638;SDS011;2332;38.646;-9.154;2022-07-21T15:02:30;17.47;;;5.83;;
4638;SDS011;2332;38.646;-9.154;2022-07-21T15:04:56;10.13;;;5.47;;
4638;SDS011;2332;38.646;-9.154;2022-07-21T15:07:21;14.33;;;5.40;;
4638;SDS011;2332;38.646;-9.154;2022-07-21T15:09:47;14.10;;;5.60;;
4638;SDS011;2332;38.646;-9.154;2022-07-21T15:12:13;11.70;;;4.93;;
4638;SDS011;2332;38.646;-9.154;2022-07-21T15:14:39;8.13;;;4.33;;
4638;SDS011;2332;38.646;-9.154;2022-07-21T15:17:05;11.53;;;5.57;;
4638;SDS011;2332;38.646;-9.154;2022-07-21T15:19:31;12.27;;;5.10;;
4638;SDS011;2332;38.646;-9.154;2022-07-21T15:21:56;11.77;;;4.83;;
4638;SDS011;2332;38.646;-9.154;2022-07-21T15:24:22;12.37;;;5.40;;
4638;SDS011;2332;38.646;-9.154;2022-07-21T15:26:48;10.00;;;5.30;;
4638;SDS011;2332;38.646;-9.154;2022-07-21T15:29:14;15.37;;;5.57;;
4638;SDS011;2332;38.646;-9.154;2022-07-21T15:31:40;11.23;;;5.50;;